Terminal Aerodrome Forecast
Issued by NWS

Home | Current Version | Previous Version | Text Only | Print | Product List | Glossary Off
Versions: 1 2 3 4 5 6 7 8 9 10 11 12 13 14 15 16 17 18 19 20 21

000
FTUS43 KABR 081537 AAA
TAFATY
TAF AMD
KATY 081537Z 0816/0912 31016G22KT 5SM BLSN VCSH SCT007 OVC035
     FM081800 31015G23KT 6SM BLSN VCSH OVC040
     FM082000 31015KT P6SM OVC045
     FM090100 31010KT P6SM BKN070
     FM090800 31006KT P6SM BKN050
     FM091100 31005KT P6SM SCT060=

USA.gov is the U.S. government's official web portal to all federal, state and local government web resources and services.